• Join FlightAware (Why Join?)
  • Login
  • US Flag 
 
07:29PM EST


 

Airport Tracker/Info


-or-


 

Live Flight TrackerFlight Track Log ✈ AWE3827 ✈ 12-Apr-2013 ✈ KCLT - KBNA

Flight Track Log - Related Links

Times and Time Zones

All times are in EDT time to prevent confusion due to time zone crossing. See the AWE3827 flight status page for this flight to view local times or setup timezone preferences in your user account.

Time Position Orientation Groundspeed Altitude Reporting Facility
EDT Latitude Longitude Course Direction KTS MPH feet Rate Location/Type
08:09AM 35.1956 -80.9533 239° Southwest 154 177 1,400  Level Atlanta Center
08:10AM 35.1703 -80.9492 172° South 167 192 2,300 1,860 Climbing Atlanta Center
08:10AM 35.1372 -80.9631 199° South 191 220 3,800 2,100 Climbing Atlanta Center
08:11AM 35.1253 -80.9864 238° Southwest 208 239 4,700 2,100 Climbing Atlanta Center
08:11AM 35.1200 -81.0247 260° West 224 258 5,900 2,040 Climbing Atlanta Center
08:12AM 35.2565 -81.1553 282° West  Level FlightAware Approximate
08:12AM 35.1189 -81.0628 268° West 243 280 6,800  Level Atlanta Center
08:12AM 35.1200 -81.1083 272° West 243 280 7,900 1,560 Climbing Atlanta Center
08:13AM 35.2459 -81.2651 242° Southwest  Level FlightAware Approximate
08:13AM 35.1272 -81.1564 280° West 270 311 8,400  Level Atlanta Center
08:13AM 35.1303 -81.1894 276° West 282 325 9,300 1,560 Climbing Atlanta Center
08:14AM 35.1995 -81.3677 239° Southwest  Level FlightAware Approximate
08:14AM 35.1322 -81.2808 272° West 287 330 10,800  Level Atlanta Center
08:15AM 35.1325 -81.3822 270° West 292 336 12,600 1,440 Climbing Atlanta Center
08:16AM 35.1347 -81.4889 271° West 307 353 13,700 1,320 Climbing Atlanta Center
08:17AM 35.1347 -81.5981 270° West 324 373 15,300 1,500 Climbing Atlanta Center
08:18AM 35.1353 -81.7225 270° West 329 379 16,700 1,200 Climbing Atlanta Center
08:19AM 35.1225 -81.8294 262° West 329 379 17,800 1,200 Climbing Atlanta Center
08:20AM 35.1142 -81.9439 265° West 334 384 19,100 1,200 Climbing Atlanta Center
08:21AM 35.1056 -82.0586 265° West 334 384 20,200 960 Climbing Atlanta Center
08:22AM 35.0969 -82.1728 265° West 334 384 21,100 780 Climbing Atlanta Center
08:23AM 35.0903 -82.2822 266° West 339 390 21,800 660 Climbing Atlanta Center
08:24AM 35.1481 -82.3928 303° West 334 384 22,500 840 Climbing Atlanta Center
08:25AM 35.2058 -82.5008 303° West 374 430 23,500 1,020 Climbing Atlanta Center
08:26AM 35.2592 -82.6017 303° West 379 436 24,600 1,200 Climbing Atlanta Center
08:27AM 35.3147 -82.7103 302° West 368 423 25,900 660 Climbing Atlanta Center
08:28AM 35.3658 -82.8164 301° West 368 423 26,000  Climbing Atlanta Center
08:29AM 35.4211 -82.9225 303° West 362 417 26,000  Level Atlanta Center
08:30AM 35.4678 -83.0189 301° West 367 422 26,000  Level Atlanta Center
08:31AM 35.5231 -83.1303 301° West 377 434 26,000  Level Atlanta Center
08:32AM 35.5844 -83.2522 302° West 382 440 26,000  Level Atlanta Center
08:33AM 35.6414 -83.3589 303° West 382 440 26,000  Level Atlanta Center
08:34AM 35.6919 -83.4633 301° West 377 434 26,000  Level Atlanta Center
08:35AM 35.7425 -83.5681 301° West 370 426 26,000  Level Atlanta Center
08:36AM 35.7950 -83.6700 302° West 358 412 26,000 -540 Level Atlanta Center
08:37AM 35.8472 -83.7775 301° West 358 412 25,000 -1,080 Descending Atlanta Center
08:38AM 35.8956 -83.8900 298° West 358 412 23,900 -1,080 Descending Atlanta Center
08:39AM 35.8853 -84.0106 264° West 335 386 22,900 -1,020 Descending Atlanta Center
08:40AM 35.8664 -84.1283 259° West 340 391 21,900 -1,020 Descending Atlanta Center
08:41AM 35.8453 -84.2489 258° West 352 405 20,900 -960 Descending Atlanta Center
08:42AM 35.8264 -84.3667 259° West 357 411 20,000 -480 Descending Atlanta Center
08:43AM 35.8072 -84.4817 258° West 357 411 20,000  Level Atlanta Center
08:44AM 35.7881 -84.5942 258° West 347 399 20,000  Level Atlanta Center
08:47AM 35.7392 -84.8761 258° West 339 390 20,000  Level Memphis Center
08:48AM 35.7192 -84.9900 258° West 339 390 20,000  Level Memphis Center
08:49AM 35.7011 -85.1011 259° West 334 384 20,000  Level Memphis Center
08:50AM 35.6828 -85.2147 259° West 334 384 20,000  Level Memphis Center
08:51AM 35.6603 -85.3286 256° West 340 391 20,000  Level Memphis Center
08:52AM 35.6397 -85.4397 257° West 335 386 20,000 -540 Level Memphis Center
08:53AM 35.6361 -85.5547 268° West 335 386 19,000 -1,740 Descending Memphis Center
08:54AM 35.6425 -85.6719 274° West 335 386 16,600 -2,400 Descending Memphis Center
08:55AM 35.6489 -85.7839 274° West 335 386 14,200 -2,160 Descending Memphis Center
08:56AM 35.6592 -85.8933 277° West 335 386 12,300 -2,100 Descending Memphis Center
08:57AM 35.6608 -86.0006 271° West 324 373 10,100 -1,200 Descending Memphis Center
08:58AM 35.6869 -86.0961 289° West 306 352 10,000 -60 Descending Memphis Center
08:59AM 35.7317 -86.1808 303° West 300 345 10,000 -300 Level Memphis Center
09:00AM 35.7783 -86.2656 304° West 301 346 9,500 -1,020 Descending Memphis Center
09:01AM 35.8181 -86.3353 305° West 278 320 8,000 -1,380 Descending Memphis Center
09:02AM 35.8539 -86.4078 301° West 253 291 6,800 -1,320 Descending Memphis Center
09:03AM 35.8958 -86.4825 305° West 253 291 5,400 -1,320 Descending Memphis Center
09:04AM 35.9311 -86.5475 304° West 242 278 4,200 -1,140 Descending Memphis Center
09:05AM 35.9600 -86.6078 301° West 235 270 3,200 -900 Descending Memphis Center
09:06AM 35.9869 -86.6733 297° West 230 265 2,500 -720 Descending Memphis Center